Terminal Aerodrome Forecast
Issued by NWS Corpus Christi, TX

Home | Current Version | Previous Version | Text Only | Print | Product List | Glossary On
Versions: 1 2 3 4 5 6 7 8 9 10 11 12 13 14 15 16 17 18 19
000
FTUS44 KCRP 021727
TAFCRP
TAF
KCRP 021727Z 0218/0318 36017G26KT P6SM VCSH OVC025
     FM030000 01017G23KT P6SM BKN035
     FM030300 36012G17KT P6SM BKN050=

USA.gov is the U.S. government's official web portal to all federal, state and local government web resources and services.